createdAt,value
2017-12-27T00:01:57.226Z,99629.80
2017-12-27T00:04:30.471Z,99621.77
2017-12-27T00:10:04.649Z,99618.41
2017-12-27T00:15:39.906Z,99611.44
2017-12-27T00:18:13.198Z,99600.79
2017-12-27T00:20:46.298Z,99599.18
2017-12-27T00:23:19.542Z,99590.91
2017-12-27T00:25:52.803Z,99581.84
2017-12-27T00:28:25.998Z,99578.03
2017-12-27T00:30:53.893Z,99572.88
2017-12-27T00:33:21.474Z,99568.78
2017-12-27T00:35:49.039Z,99563.38
2017-12-27T00:38:16.618Z,99566.45
2017-12-27T00:40:44.190Z,99564.95
2017-12-27T00:43:11.767Z,99557.76
2017-12-27T00:45:39.367Z,99557.90
2017-12-27T00:48:06.961Z,99555.45
2017-12-27T00:50:34.562Z,99551.34
2017-12-27T00:53:02.144Z,99550.16
2017-12-27T00:55:29.710Z,99548.45
2017-12-27T00:57:57.313Z,99550.43
2017-12-27T01:00:24.914Z,99545.52
2017-12-27T01:02:53.409Z,99555.42
2017-12-27T01:05:20.978Z,99553.71
2017-12-27T01:07:48.578Z,99543.20
2017-12-27T01:10:16.143Z,99541.02
2017-12-27T01:12:43.758Z,99546.00
2017-12-27T01:15:11.333Z,99541.71
2017-12-27T01:17:38.899Z,99533.48
2017-12-27T01:20:06.494Z,99534.48
2017-12-27T01:22:34.062Z,99530.72
2017-12-27T01:25:01.666Z,99523.84
2017-12-27T01:27:29.318Z,99521.37
2017-12-27T01:29:56.883Z,99524.57
2017-12-27T01:32:24.495Z,99521.26
2017-12-27T01:34:52.064Z,99514.91
2017-12-27T01:37:19.626Z,99515.96
2017-12-27T01:39:47.232Z,99528.90
2017-12-27T01:42:24.868Z,99532.02
2017-12-27T01:44:52.478Z,99528.16
2017-12-27T01:47:20.043Z,99533.10
2017-12-27T01:49:47.619Z,99520.14
2017-12-27T01:52:15.187Z,99518.12
2017-12-27T01:54:42.756Z,99520.07
2017-12-27T01:57:10.366Z,99519.47
2017-12-27T01:59:37.978Z,99511.98
2017-12-27T02:02:05.539Z,99515.22
2017-12-27T02:04:34.151Z,99517.51
2017-12-27T02:07:01.714Z,99506.45
2017-12-27T02:09:29.279Z,99496.93
2017-12-27T02:11:56.852Z,99498.11
2017-12-27T02:14:24.415Z,99498.75
2017-12-27T02:16:51.986Z,99491.02
2017-12-27T02:19:19.564Z,99489.51
2017-12-27T02:21:47.130Z,99492.61
2017-12-27T02:24:15.300Z,99482.13
2017-12-27T02:26:42.907Z,99477.78
2017-12-27T02:29:10.467Z,99466.66
2017-12-27T02:31:38.034Z,99462.92
2017-12-27T02:34:05.594Z,99470.04
2017-12-27T02:36:33.213Z,99471.18
2017-12-27T02:39:00.782Z,99472.08
2017-12-27T02:41:28.346Z,99461.94
2017-12-27T02:43:55.911Z,99457.44
2017-12-27T02:46:23.477Z,99444.21
2017-12-27T02:48:51.050Z,99435.55
2017-12-27T02:51:18.615Z,99428.05
2017-12-27T02:53:46.189Z,99434.50
2017-12-27T02:56:13.753Z,99428.95
2017-12-27T02:58:41.315Z,99427.68
2017-12-27T03:01:08.870Z,99418.89
2017-12-27T03:03:36.429Z,99411.84
2017-12-27T03:06:04.082Z,99402.73
2017-12-27T03:08:31.668Z,99406.29
2017-12-27T03:10:59.232Z,99407.39
2017-12-27T03:13:26.843Z,99399.30
2017-12-27T03:15:54.415Z,99396.27
2017-12-27T03:18:21.980Z,99397.59
2017-12-27T03:20:49.549Z,99397.13
2017-12-27T03:23:17.113Z,99387.20
2017-12-27T03:25:44.678Z,99388.63
2017-12-27T03:28:12.238Z,99385.53
2017-12-27T03:30:39.839Z,99381.25
2017-12-27T03:33:07.401Z,99379.22
2017-12-27T03:35:35.017Z,99373.61
2017-12-27T03:38:02.577Z,99371.22
2017-12-27T03:40:30.138Z,99366.89
2017-12-27T03:42:57.699Z,99364.42
2017-12-27T03:45:25.257Z,99350.17
2017-12-27T03:47:52.817Z,99346.70
2017-12-27T03:50:20.378Z,99341.03
2017-12-27T03:52:47.942Z,99346.56
2017-12-27T03:55:15.502Z,99338.69
2017-12-27T03:57:43.069Z,99340.40
2017-12-27T04:00:10.625Z,99333.74
2017-12-27T04:02:38.188Z,99332.25
2017-12-27T04:05:06.659Z,99333.84
2017-12-27T04:07:35.081Z,99334.44
2017-12-27T04:10:03.543Z,99324.20
2017-12-27T04:12:31.105Z,99319.98
2017-12-27T04:14:59.642Z,99321.80
2017-12-27T04:17:27.206Z,99316.41
2017-12-27T04:19:55.686Z,99316.89
2017-12-27T04:22:23.245Z,99304.66
2017-12-27T04:24:51.840Z,99308.88
2017-12-27T04:27:19.400Z,99311.48
2017-12-27T04:29:46.973Z,99309.23
2017-12-27T04:32:15.348Z,99316.54
2017-12-27T04:34:42.909Z,99307.90
2017-12-27T04:37:10.471Z,99298.42
2017-12-27T04:39:38.072Z,99295.15
2017-12-27T04:42:11.467Z,99291.66
2017-12-27T04:44:39.034Z,99283.13
2017-12-27T04:47:07.377Z,99274.81
2017-12-27T04:49:34.976Z,99278.39
2017-12-27T04:52:02.539Z,99277.61
2017-12-27T04:54:30.108Z,99271.34
2017-12-27T04:56:57.671Z,99267.47
2017-12-27T04:59:25.235Z,99256.55
2017-12-27T05:01:52.803Z,99252.81
2017-12-27T05:04:20.370Z,99245.54
2017-12-27T05:06:47.973Z,99234.38
2017-12-27T05:09:15.544Z,99225.92
2017-12-27T05:11:43.117Z,99226.41
2017-12-27T05:14:10.685Z,99226.13
2017-12-27T05:16:38.267Z,99223.52
2017-12-27T05:19:05.846Z,99214.58
2017-12-27T05:21:33.462Z,99210.72
2017-12-27T05:24:01.026Z,99201.50
2017-12-27T05:26:28.592Z,99205.98
2017-12-27T05:28:56.944Z,99199.13
2017-12-27T05:31:25.206Z,99194.33
2017-12-27T05:33:52.770Z,99186.53
2017-12-27T05:36:20.337Z,99192.63
2017-12-27T05:38:48.690Z,99196.84
2017-12-27T05:41:16.262Z,99193.31
2017-12-27T05:43:43.822Z,99189.91
2017-12-27T05:46:11.403Z,99181.73
2017-12-27T05:48:38.979Z,99176.58
2017-12-27T05:51:06.550Z,99168.47
2017-12-27T05:53:34.122Z,99168.75
2017-12-27T05:56:01.695Z,99164.13
2017-12-27T05:58:29.304Z,99165.58
2017-12-27T06:00:56.878Z,99162.83
2017-12-27T06:03:24.454Z,99165.86
2017-12-27T06:05:52.072Z,99163.55
2017-12-27T06:08:19.656Z,99162.45
2017-12-27T06:10:47.998Z,99162.45
2017-12-27T06:13:15.577Z,99155.25
2017-12-27T06:15:43.177Z,99159.91
2017-12-27T06:18:10.906Z,99150.55
2017-12-27T06:20:40.454Z,99151.84
2017-12-27T06:23:08.632Z,99143.88
2017-12-27T06:25:36.199Z,99141.23
2017-12-27T06:28:03.866Z,99122.09
2017-12-27T06:30:31.457Z,99126.30
2017-12-27T06:32:59.975Z,99127.30
2017-12-27T06:35:27.536Z,99125.38
2017-12-27T06:37:55.118Z,99126.70
2017-12-27T06:40:22.680Z,99119.71
2017-12-27T06:42:50.264Z,99112.06
2017-12-27T06:45:17.838Z,99104.09
2017-12-27T06:47:45.414Z,99105.62
2017-12-27T06:50:12.991Z,99101.69
2017-12-27T06:52:40.561Z,99101.80
2017-12-27T06:55:08.136Z,99100.73
2017-12-27T06:57:36.437Z,99090.33
2017-12-27T07:00:04.911Z,99082.61
2017-12-27T07:02:34.256Z,99080.88
2017-12-27T07:05:02.632Z,99087.07
2017-12-27T07:07:31.156Z,99093.58
2017-12-27T07:09:58.751Z,99092.42
2017-12-27T07:12:26.336Z,99089.30
2017-12-27T07:14:53.918Z,99089.05
2017-12-27T07:17:21.487Z,99087.09
2017-12-27T07:19:49.075Z,99082.64
2017-12-27T07:22:16.654Z,99083.69
2017-12-27T07:24:44.235Z,99071.86
2017-12-27T07:27:11.828Z,99076.45
2017-12-27T07:29:39.408Z,99078.23
2017-12-27T07:32:06.983Z,99070.72
2017-12-27T07:34:35.374Z,99074.82
2017-12-27T07:37:02.942Z,99065.16
2017-12-27T07:39:31.422Z,99065.09
2017-12-27T07:41:59.706Z,99062.17
2017-12-27T07:44:27.282Z,99053.27
2017-12-27T07:46:55.642Z,99049.09
2017-12-27T07:49:24.172Z,99048.30
2017-12-27T07:51:52.461Z,99046.39
2017-12-27T07:54:20.051Z,99042.73
2017-12-27T07:56:48.490Z,99046.84
2017-12-27T07:59:16.857Z,99038.67
2017-12-27T08:01:44.462Z,99033.73
2017-12-27T08:04:12.042Z,99025.17
2017-12-27T08:06:40.606Z,99018.53
2017-12-27T08:09:08.885Z,99010.70
2017-12-27T08:11:36.455Z,99006.20
2017-12-27T08:14:04.817Z,99007.10
2017-12-27T08:16:32.386Z,98994.94
2017-12-27T08:18:59.955Z,98992.34
2017-12-27T08:21:27.529Z,98981.93
2017-12-27T08:23:55.940Z,98979.36
2017-12-27T08:26:23.520Z,98973.71
2017-12-27T08:28:51.103Z,98976.63
2017-12-27T08:33:52.046Z,98965.06
2017-12-27T08:36:19.667Z,98963.06
2017-12-27T08:38:47.241Z,98956.58
2017-12-27T08:41:14.809Z,98955.10
2017-12-27T08:43:42.394Z,98955.52
2017-12-27T08:46:09.966Z,98949.89
2017-12-27T08:48:37.537Z,98949.12
2017-12-27T08:51:05.106Z,98947.77
2017-12-27T08:53:32.680Z,98941.94
2017-12-27T08:56:00.251Z,98936.75
2017-12-27T08:58:27.823Z,98936.56
2017-12-27T09:00:55.398Z,98938.55
2017-12-27T09:03:22.974Z,98933.95
2017-12-27T09:05:50.549Z,98931.13
2017-12-27T09:08:18.155Z,98928.47
2017-12-27T09:10:45.726Z,98918.47
2017-12-27T09:13:13.343Z,98918.44
2017-12-27T09:15:40.913Z,98922.30
2017-12-27T09:18:08.481Z,98916.64
2017-12-27T09:20:36.084Z,98922.44
2017-12-27T09:23:03.704Z,98914.56
2017-12-27T09:25:32.173Z,98910.92
2017-12-27T09:27:59.750Z,98911.70
2017-12-27T09:30:27.319Z,98907.75
2017-12-27T09:32:55.610Z,98910.67
2017-12-27T09:35:23.182Z,98915.47
2017-12-27T09:37:50.751Z,98906.85
2017-12-27T09:40:18.327Z,98893.00
2017-12-27T09:42:45.910Z,98892.62
2017-12-27T09:45:13.488Z,98883.71
2017-12-27T09:47:41.061Z,98875.25
2017-12-27T09:50:08.633Z,98867.73
2017-12-27T09:52:36.207Z,98862.47
2017-12-27T09:55:03.783Z,98855.55
2017-12-27T09:57:32.188Z,98853.77
2017-12-27T09:59:59.755Z,98848.87
2017-12-27T10:02:27.325Z,98842.10
2017-12-27T10:04:54.894Z,98826.73
2017-12-27T10:07:22.460Z,98832.75
2017-12-27T10:09:50.031Z,98827.72
2017-12-27T10:12:17.610Z,98814.82
2017-12-27T10:14:45.967Z,98811.91
2017-12-27T10:17:14.381Z,98805.61
2017-12-27T10:19:41.956Z,98801.95
2017-12-27T10:22:09.522Z,98790.42
2017-12-27T10:24:37.102Z,98784.03
2017-12-27T10:27:04.739Z,98779.34
2017-12-27T10:29:33.113Z,98767.41
2017-12-27T10:32:01.471Z,98764.08
2017-12-27T10:34:29.045Z,98765.92
2017-12-27T10:36:57.306Z,98752.36
2017-12-27T10:39:24.891Z,98740.81
2017-12-27T10:41:52.503Z,98732.39
2017-12-27T10:44:20.147Z,98723.61
2017-12-27T10:46:47.713Z,98719.48
2017-12-27T10:49:16.207Z,98723.86
2017-12-27T10:51:43.770Z,98720.45
2017-12-27T10:54:11.333Z,98711.10
2017-12-27T10:56:38.903Z,98706.02
2017-12-27T10:59:06.479Z,98698.71
2017-12-27T11:01:34.052Z,98700.73
2017-12-27T11:04:02.428Z,98687.48
2017-12-27T11:06:30.045Z,98688.17
2017-12-27T11:08:57.660Z,98676.89
2017-12-27T11:11:26.142Z,98666.36
2017-12-27T11:13:53.708Z,98665.56
2017-12-27T11:16:21.278Z,98664.03
2017-12-27T11:18:48.847Z,98663.77
2017-12-27T11:21:17.322Z,98660.02
2017-12-27T11:23:46.397Z,98647.92
2017-12-27T11:26:14.883Z,98641.90
2017-12-27T11:28:43.370Z,98635.09
2017-12-27T11:31:10.937Z,98628.70
2017-12-27T11:33:38.504Z,98625.22
2017-12-27T11:36:06.081Z,98616.39
2017-12-27T11:38:33.659Z,98620.70
2017-12-27T11:41:02.242Z,98608.28
2017-12-27T11:43:29.845Z,98602.95
2017-12-27T11:45:57.498Z,98597.02
2017-12-27T11:48:25.071Z,98593.75
2017-12-27T11:50:53.475Z,98591.16
2017-12-27T11:53:21.043Z,98580.83
2017-12-27T11:55:48.623Z,98565.14
2017-12-27T11:58:16.191Z,98564.27
2017-12-27T12:00:44.568Z,98556.27
2017-12-27T12:03:12.135Z,98558.14
2017-12-27T12:05:39.708Z,98554.59
2017-12-27T12:08:08.172Z,98551.27
2017-12-27T12:10:35.735Z,98531.25
2017-12-27T12:13:03.299Z,98523.86
2017-12-27T12:15:30.871Z,98527.11
2017-12-27T12:17:58.575Z,98518.97
2017-12-27T12:20:26.219Z,98518.91
2017-12-27T12:22:53.790Z,98516.06
2017-12-27T12:25:22.145Z,98511.82
2017-12-27T12:27:49.717Z,98514.85
2017-12-27T12:30:17.295Z,98499.84
2017-12-27T12:32:44.863Z,98495.73
2017-12-27T12:35:12.440Z,98490.55
2017-12-27T12:37:40.003Z,98489.45
2017-12-27T12:40:07.580Z,98483.86
2017-12-27T12:42:35.973Z,98475.61
2017-12-27T12:45:03.542Z,98476.45
2017-12-27T12:47:31.230Z,98470.63
2017-12-27T12:49:58.807Z,98467.77
2017-12-27T12:52:26.374Z,98464.60
2017-12-27T12:54:53.949Z,98452.86
2017-12-27T12:57:21.525Z,98455.86
2017-12-27T12:59:50.179Z,98453.30
2017-12-27T13:02:17.783Z,98441.55
2017-12-27T13:04:45.390Z,98436.20
2017-12-27T13:07:13.970Z,98435.53
2017-12-27T13:09:41.538Z,98429.94
2017-12-27T13:12:09.191Z,98432.13
2017-12-27T13:14:36.768Z,98424.65
2017-12-27T13:17:04.343Z,98430.09
2017-12-27T13:19:31.911Z,98419.98
2017-12-27T13:21:59.491Z,98424.35
2017-12-27T13:24:27.122Z,98427.55
2017-12-27T13:26:54.692Z,98418.38
2017-12-27T13:29:22.268Z,98420.00
2017-12-27T13:31:49.839Z,98419.31
2017-12-27T13:34:18.532Z,98423.27
2017-12-27T13:36:46.108Z,98419.88
2017-12-27T13:39:13.678Z,98408.95
2017-12-27T13:41:41.258Z,98400.64
2017-12-27T13:44:08.843Z,98388.67
2017-12-27T13:46:36.418Z,98398.72
2017-12-27T13:49:05.213Z,98381.81
2017-12-27T13:51:35.439Z,98389.44
2017-12-27T13:54:03.042Z,98387.43
2017-12-27T13:56:30.626Z,98388.00
2017-12-27T13:58:58.203Z,98386.03
2017-12-27T14:01:26.546Z,98384.16
2017-12-27T14:03:54.916Z,98383.07
2017-12-27T14:06:22.524Z,98380.48
2017-12-27T14:08:50.110Z,98385.67
2017-12-27T14:11:17.726Z,98386.75
2017-12-27T14:13:45.300Z,98377.33
2017-12-27T14:16:12.880Z,98379.13
2017-12-27T14:18:40.451Z,98388.11
2017-12-27T14:21:08.057Z,98375.97
2017-12-27T14:23:36.368Z,98376.80
2017-12-27T14:26:04.714Z,98362.13
2017-12-27T14:28:32.290Z,98367.52
2017-12-27T14:30:59.864Z,98369.97
2017-12-27T14:33:27.436Z,98377.20
2017-12-27T14:35:55.016Z,98371.55
2017-12-27T14:38:22.594Z,98367.55
2017-12-27T14:40:51.107Z,98367.55
2017-12-27T14:43:19.472Z,98359.07
2017-12-27T14:45:47.892Z,98349.88
2017-12-27T14:48:16.292Z,98346.00
2017-12-27T14:50:44.776Z,98351.03
2017-12-27T14:53:12.356Z,98351.30
2017-12-27T14:55:39.926Z,98349.73
2017-12-27T14:58:08.219Z,98349.26
2017-12-27T15:00:35.805Z,98348.98
2017-12-27T15:03:05.122Z,98342.31
2017-12-27T15:05:32.701Z,98341.75
2017-12-27T15:08:01.192Z,98338.01
2017-12-27T15:10:29.565Z,98336.77
2017-12-27T15:12:58.061Z,98342.66
2017-12-27T15:15:26.444Z,98335.62
2017-12-27T15:17:54.765Z,98331.28
2017-12-27T15:20:23.109Z,98324.50
2017-12-27T15:22:51.412Z,98318.65
2017-12-27T15:25:18.997Z,98316.88
2017-12-27T15:27:47.315Z,98312.11
2017-12-27T15:30:15.812Z,98313.77
2017-12-27T15:32:44.156Z,98319.06
2017-12-27T15:35:11.792Z,98316.87
2017-12-27T15:37:40.166Z,98312.47
2017-12-27T15:40:08.516Z,98320.44
2017-12-27T15:42:36.132Z,98322.41
2017-12-27T15:45:03.705Z,98319.00
2017-12-27T15:47:32.215Z,98327.50
2017-12-27T15:49:59.791Z,98332.89
2017-12-27T15:52:28.198Z,98340.13
2017-12-27T15:54:56.695Z,98340.95
2017-12-27T15:57:24.568Z,98344.48
2017-12-27T15:59:53.063Z,98341.69
2017-12-27T16:02:21.442Z,98335.62
2017-12-27T16:04:49.862Z,98330.59
2017-12-27T16:07:18.411Z,98326.69
2017-12-27T16:09:46.754Z,98328.11
2017-12-27T16:12:14.334Z,98319.50
2017-12-27T16:14:42.806Z,98321.98
2017-12-27T16:17:10.384Z,98316.48
2017-12-27T16:19:37.990Z,98318.91
2017-12-27T16:22:06.500Z,98318.59
2017-12-27T16:24:34.771Z,98307.16
2017-12-27T16:27:02.369Z,98305.03
2017-12-27T16:29:29.942Z,98304.86
2017-12-27T16:31:57.555Z,98303.20
2017-12-27T16:34:25.131Z,98299.39
2017-12-27T16:36:53.433Z,98286.98
2017-12-27T16:39:21.895Z,98289.80
2017-12-27T16:41:50.310Z,98294.30
2017-12-27T16:44:17.875Z,98298.19
2017-12-27T16:46:46.362Z,98299.15
2017-12-27T16:49:14.712Z,98312.23
2017-12-27T16:51:42.291Z,98327.16
2017-12-27T16:54:10.766Z,98327.03
2017-12-27T16:56:38.335Z,98323.43
2017-12-27T16:59:05.908Z,98327.55
2017-12-27T17:01:34.274Z,98331.17
2017-12-27T17:04:02.793Z,98319.83
2017-12-27T17:06:31.082Z,98315.20
2017-12-27T17:08:59.570Z,98305.78
2017-12-27T17:11:27.880Z,98314.96
2017-12-27T17:13:55.454Z,98312.05
2017-12-27T17:16:23.994Z,98317.97
2017-12-27T17:18:51.572Z,98314.45
2017-12-27T17:21:19.191Z,98315.39
2017-12-27T17:23:47.546Z,98328.69
2017-12-27T17:26:16.033Z,98327.26
2017-12-27T17:28:43.616Z,98334.49
2017-12-27T17:31:11.187Z,98332.03
2017-12-27T17:33:39.726Z,98321.97
2017-12-27T17:36:08.092Z,98312.23
2017-12-27T17:38:36.567Z,98315.89
2017-12-27T17:41:04.145Z,98310.89
2017-12-27T17:43:32.693Z,98308.30
2017-12-27T17:46:00.256Z,98311.98
2017-12-27T17:48:28.728Z,98306.09
2017-12-27T17:50:57.098Z,98312.33
2017-12-27T17:53:25.485Z,98301.97
2017-12-27T17:55:53.095Z,98312.55
2017-12-27T17:58:20.684Z,98307.66
2017-12-27T18:00:49.190Z,98313.77
2017-12-27T18:03:17.558Z,98319.13
2017-12-27T18:05:46.166Z,98321.00
2017-12-27T18:08:13.738Z,98309.70
2017-12-27T18:10:41.345Z,98315.86
2017-12-27T18:13:08.917Z,98323.56
2017-12-27T18:15:36.540Z,98308.36
2017-12-27T18:18:04.119Z,98317.48
2017-12-27T18:20:31.710Z,98316.52
2017-12-27T18:22:59.287Z,98316.80
2017-12-27T18:25:26.863Z,98316.77
2017-12-27T18:27:54.439Z,98324.20
2017-12-27T18:30:22.015Z,98319.66
2017-12-27T18:32:49.594Z,98319.98
2017-12-27T18:35:17.165Z,98325.23
2017-12-27T18:37:45.342Z,98328.45
2017-12-27T18:40:12.918Z,98331.82
2017-12-27T18:42:40.531Z,98330.65
2017-12-27T18:45:08.112Z,98331.27
2017-12-27T18:47:35.690Z,98334.70
2017-12-27T18:50:03.337Z,98341.43
2017-12-27T18:52:30.911Z,98347.85
2017-12-27T18:54:58.514Z,98342.58
2017-12-27T18:57:26.082Z,98344.77
2017-12-27T18:59:53.693Z,98347.56
2017-12-27T19:02:21.279Z,98341.99
2017-12-27T19:04:48.894Z,98338.91
2017-12-27T19:07:16.474Z,98345.87
2017-12-27T19:09:44.086Z,98344.77
2017-12-27T19:12:11.660Z,98336.46
2017-12-27T19:14:39.274Z,98339.66
2017-12-27T19:17:06.858Z,98335.03
2017-12-27T19:19:34.438Z,98332.05
2017-12-27T19:22:02.026Z,98337.67
2017-12-27T19:24:29.598Z,98331.17
2017-12-27T19:26:57.171Z,98331.82
2017-12-27T19:29:24.777Z,98334.13
2017-12-27T19:31:52.453Z,98351.01
2017-12-27T19:34:20.121Z,98349.30
2017-12-27T19:36:47.800Z,98348.00
2017-12-27T19:39:15.417Z,98347.41
2017-12-27T19:41:43.457Z,98349.95
2017-12-27T19:44:11.317Z,98345.71
2017-12-27T19:46:38.954Z,98339.91
2017-12-27T19:49:07.110Z,98342.38
2017-12-27T19:51:34.803Z,98345.29
2017-12-27T19:54:02.382Z,98341.93
2017-12-27T19:56:29.950Z,98340.97
2017-12-27T19:58:57.525Z,98343.18
2017-12-27T20:01:25.139Z,98337.33
2017-12-27T20:03:53.563Z,98340.97
2017-12-27T20:06:21.150Z,98341.66
2017-12-27T20:08:48.722Z,98339.99
2017-12-27T20:11:16.295Z,98338.11
2017-12-27T20:13:43.866Z,98338.01
2017-12-27T20:16:12.235Z,98333.55
2017-12-27T20:18:40.754Z,98330.87
2017-12-27T20:21:09.172Z,98324.14
2017-12-27T20:23:37.130Z,98327.39
2017-12-27T20:26:04.712Z,98326.47
2017-12-27T20:28:32.288Z,98332.91
2017-12-27T20:30:59.859Z,98331.19
2017-12-27T20:33:27.430Z,98329.87
2017-12-27T20:35:54.998Z,98326.54
2017-12-27T20:38:23.523Z,98328.95
2017-12-27T20:40:51.098Z,98322.26
2017-12-27T20:43:18.690Z,98327.52
2017-12-27T20:45:46.263Z,98321.05
2017-12-27T20:48:14.830Z,98330.17
2017-12-27T20:50:42.407Z,98331.23
2017-12-27T20:53:10.763Z,98331.95
2017-12-27T20:55:38.379Z,98340.79
2017-12-27T20:58:05.959Z,98331.84
2017-12-27T21:00:33.567Z,98329.85
2017-12-27T21:03:01.999Z,98323.39
2017-12-27T21:05:30.352Z,98333.96
2017-12-27T21:07:57.928Z,98332.16
2017-12-27T21:10:25.508Z,98327.92
2017-12-27T21:12:53.131Z,98320.78
2017-12-27T21:15:21.580Z,98321.61
2017-12-27T21:17:49.939Z,98315.98
2017-12-27T21:20:17.511Z,98334.83
2017-12-27T21:22:45.086Z,98333.48
2017-12-27T21:25:12.658Z,98330.62
2017-12-27T21:27:40.275Z,98331.72
2017-12-27T21:30:07.848Z,98336.62
2017-12-27T21:32:36.362Z,98338.56
2017-12-27T21:35:03.931Z,98346.81
2017-12-27T21:37:31.519Z,98348.46
2017-12-27T21:39:59.089Z,98353.54
2017-12-27T21:42:26.671Z,98348.02
2017-12-27T21:44:54.289Z,98345.40
2017-12-27T21:50:26.954Z,98339.97
2017-12-27T21:52:54.546Z,98336.50
2017-12-27T21:55:23.203Z,98346.28
2017-12-27T21:57:50.869Z,98343.06
2017-12-27T22:00:24.117Z,98335.45
2017-12-27T22:02:51.722Z,98340.48
2017-12-27T22:05:19.302Z,98348.19
2017-12-27T22:07:46.912Z,98358.02
2017-12-27T22:10:15.430Z,98354.90
2017-12-27T22:12:43.055Z,98357.72
2017-12-27T22:15:10.632Z,98355.66
2017-12-27T22:17:38.210Z,98356.55
2017-12-27T22:23:06.802Z,98353.29
2017-12-27T22:25:34.374Z,98361.34
2017-12-27T22:28:01.943Z,98347.95
2017-12-27T22:30:29.514Z,98352.50
2017-12-27T22:32:58.131Z,98361.24
2017-12-27T22:35:25.710Z,98359.59
2017-12-27T22:37:53.283Z,98350.16
2017-12-27T22:40:20.883Z,98352.92
2017-12-27T22:42:48.445Z,98351.34
2017-12-27T22:45:16.019Z,98351.25
2017-12-27T22:47:43.615Z,98358.08
2017-12-27T22:50:11.227Z,98350.34
2017-12-27T22:52:38.805Z,98351.36
2017-12-27T22:55:06.378Z,98352.73
2017-12-27T22:57:34.656Z,98353.55
2017-12-27T23:00:03.138Z,98350.80
2017-12-27T23:02:30.719Z,98338.92
2017-12-27T23:04:58.294Z,98334.19
2017-12-27T23:07:25.868Z,98338.28
2017-12-27T23:09:53.450Z,98345.48
2017-12-27T23:12:21.021Z,98344.59
2017-12-27T23:14:48.622Z,98345.63
2017-12-27T23:17:16.195Z,98343.64
2017-12-27T23:19:44.506Z,98343.25
2017-12-27T23:22:12.997Z,98342.19
2017-12-27T23:24:41.382Z,98340.61
2017-12-27T23:27:09.733Z,98350.20
2017-12-27T23:29:38.122Z,98350.55
2017-12-27T23:32:06.495Z,98355.02
2017-12-27T23:34:34.079Z,98350.44
2017-12-27T23:37:01.655Z,98349.00
2017-12-27T23:39:29.266Z,98347.48
2017-12-27T23:41:57.662Z,98342.69
2017-12-27T23:44:25.226Z,98349.81
2017-12-27T23:46:52.902Z,98355.33
2017-12-27T23:49:20.506Z,98357.60
2017-12-27T23:51:48.130Z,98354.10
2017-12-27T23:54:15.741Z,98356.20
2017-12-27T23:56:43.419Z,98352.70
2017-12-27T23:59:11.985Z,98351.41
